createdAt,value
2019-03-16T05:44:52.837Z,8.30
2019-03-16T05:47:21.625Z,8.30
2019-03-16T05:49:50.504Z,8.30
2019-03-16T05:52:19.544Z,8.30
2019-03-16T05:54:48.431Z,8.30
2019-03-16T05:57:17.259Z,8.30
2019-03-16T05:59:46.081Z,8.20
2019-03-16T06:02:14.893Z,8.20
2019-03-16T06:04:43.749Z,8.20
2019-03-16T06:07:12.609Z,8.20
2019-03-16T06:09:42.848Z,8.20
2019-03-16T06:12:14.262Z,8.20
2019-03-16T06:14:44.349Z,8.20
2019-03-16T06:17:16.089Z,8.20
2019-03-16T06:19:44.896Z,8.20
2019-03-16T06:22:14.920Z,8.20
2019-03-16T06:24:43.875Z,8.20
2019-03-16T06:27:12.835Z,8.20
2019-03-16T06:29:41.657Z,8.30
2019-03-16T06:32:10.469Z,8.30
2019-03-16T06:34:39.349Z,8.30
2019-03-16T06:37:08.132Z,8.30
2019-03-16T06:39:37.045Z,8.40
2019-03-16T06:42:05.911Z,8.50
2019-03-16T06:44:34.695Z,8.50
2019-03-16T06:47:03.482Z,8.60
2019-03-16T06:49:34.633Z,8.70
2019-03-16T06:52:05.560Z,8.80
2019-03-16T06:54:35.372Z,9.00
2019-03-16T06:57:04.388Z,9.20
2019-03-16T06:59:33.209Z,9.40
2019-03-16T07:02:02.345Z,9.60
2019-03-16T07:04:31.174Z,9.80
2019-03-16T07:07:00.939Z,10.00
2019-03-16T07:09:30.449Z,10.00
2019-03-16T07:11:59.674Z,10.10
2019-03-16T07:14:28.608Z,10.10
2019-03-16T07:17:02.379Z,10.20
2019-03-16T07:19:29.246Z,10.10
2019-03-16T07:21:58.089Z,10.20
2019-03-16T07:24:27.009Z,10.20
2019-03-16T07:26:55.942Z,10.20
2019-03-16T07:29:24.896Z,10.20
2019-03-16T07:31:53.901Z,10.30
2019-03-16T07:34:22.787Z,10.30
2019-03-16T07:36:51.665Z,10.30
2019-03-16T07:39:20.493Z,10.40
2019-03-16T07:41:49.421Z,10.30
2019-03-16T07:44:18.384Z,10.40
2019-03-16T07:46:47.221Z,10.40
2019-03-16T07:49:16.064Z,10.40
2019-03-16T07:51:44.925Z,10.40
2019-03-16T07:54:13.793Z,10.40
2019-03-16T07:56:42.624Z,10.40
2019-03-16T07:59:11.487Z,10.50
2019-03-16T08:01:40.365Z,10.50
2019-03-16T08:04:29.178Z,10.40
2019-03-16T08:06:58.037Z,10.50
2019-03-16T08:09:26.846Z,10.40
2019-03-16T08:11:55.640Z,10.50
2019-03-16T08:14:24.571Z,10.50
2019-03-16T08:16:53.403Z,10.50
2019-03-16T08:19:22.223Z,10.50
2019-03-16T08:21:51.121Z,10.50
2019-03-16T08:24:19.936Z,10.50
2019-03-16T08:26:48.989Z,10.50
2019-03-16T08:29:18.025Z,10.50
2019-03-16T08:31:46.845Z,10.50
2019-03-16T08:34:15.664Z,10.50
2019-03-16T08:36:44.505Z,10.50
2019-03-16T08:39:13.290Z,10.50
2019-03-16T08:41:42.097Z,10.50
2019-03-16T08:44:10.977Z,10.50
2019-03-16T08:46:39.808Z,10.50
2019-03-16T08:49:08.609Z,10.50
2019-03-16T08:51:37.448Z,10.50
2019-03-16T08:54:06.274Z,10.50
2019-03-16T08:56:35.166Z,10.50
2019-03-16T08:59:04.128Z,10.50
2019-03-16T09:01:32.929Z,10.50
2019-03-16T09:04:01.847Z,10.50
2019-03-16T09:06:52.622Z,10.50
2019-03-16T09:09:20.362Z,10.60
2019-03-16T09:11:49.268Z,10.70
2019-03-16T09:14:18.308Z,10.70
2019-03-16T09:16:47.234Z,10.80
2019-03-16T09:19:16.086Z,10.80
2019-03-16T09:21:44.920Z,10.80
2019-03-16T09:24:13.763Z,10.80
2019-03-16T09:26:42.537Z,10.90
2019-03-16T09:29:15.225Z,10.90
2019-03-16T09:31:41.997Z,10.90
2019-03-16T09:34:10.804Z,10.90
2019-03-16T09:36:39.625Z,10.90
2019-03-16T09:39:08.766Z,10.90
2019-03-16T09:41:37.623Z,11.00
2019-03-16T09:44:06.409Z,11.00
2019-03-16T09:46:35.250Z,11.00
2019-03-16T09:49:04.365Z,11.00
2019-03-16T09:51:33.256Z,11.00
2019-03-16T09:54:02.076Z,11.10
2019-03-16T09:56:30.884Z,11.10
2019-03-16T09:58:59.675Z,11.10
2019-03-16T10:01:28.520Z,11.20
2019-03-16T10:03:57.356Z,11.20
2019-03-16T10:06:26.264Z,11.20
2019-03-16T10:08:55.177Z,11.20
2019-03-16T10:11:24.005Z,11.20
2019-03-16T10:13:52.867Z,11.20
2019-03-16T10:16:21.674Z,11.30
2019-03-16T10:18:50.651Z,11.30
2019-03-16T10:21:19.469Z,11.30
2019-03-16T10:23:48.280Z,11.40
2019-03-16T10:26:19.062Z,11.40
2019-03-16T10:28:47.650Z,11.50
2019-03-16T10:31:16.587Z,11.50
2019-03-16T10:33:45.384Z,11.50
2019-03-16T10:36:14.199Z,11.50
2019-03-16T10:38:43.075Z,11.60
2019-03-16T10:41:11.924Z,11.70
2019-03-16T10:43:40.796Z,11.70
2019-03-16T10:46:09.694Z,11.70
2019-03-16T10:48:38.578Z,11.70
2019-03-16T10:51:07.432Z,11.70
2019-03-16T10:53:36.215Z,11.80
2019-03-16T10:56:05.467Z,11.80
2019-03-16T10:58:34.289Z,11.80
2019-03-16T11:01:03.159Z,11.80
2019-03-16T11:03:31.949Z,11.90
2019-03-16T11:06:00.811Z,11.90
2019-03-16T11:08:29.617Z,11.80
2019-03-16T11:10:58.478Z,11.90
2019-03-16T11:13:27.309Z,11.90
2019-03-16T11:15:56.103Z,11.90
2019-03-16T11:18:24.956Z,12.00
2019-03-16T11:20:54.167Z,12.10
2019-03-16T11:23:22.986Z,12.10
2019-03-16T11:25:51.832Z,12.10
2019-03-16T11:28:20.770Z,12.10
2019-03-16T11:30:49.597Z,12.00
2019-03-16T11:33:18.541Z,12.00
2019-03-16T11:35:47.432Z,12.00
2019-03-16T11:38:16.251Z,12.00
2019-03-16T11:40:45.312Z,12.00
2019-03-16T11:43:14.163Z,12.00
2019-03-16T11:45:42.957Z,12.00
2019-03-16T11:48:11.760Z,11.90
2019-03-16T11:50:40.653Z,12.00
2019-03-16T11:53:09.479Z,12.00
2019-03-16T11:55:38.412Z,12.00
2019-03-16T11:58:07.228Z,12.00
2019-03-16T12:00:36.226Z,12.00
2019-03-16T12:03:05.161Z,12.00
2019-03-16T12:05:34.038Z,12.00
2019-03-16T12:08:03.040Z,12.00
2019-03-16T12:10:31.872Z,11.90
2019-03-16T12:13:00.721Z,12.00
2019-03-16T12:15:29.550Z,12.20
2019-03-16T12:17:58.584Z,12.20
2019-03-16T12:20:27.418Z,12.10
2019-03-16T12:22:56.391Z,12.00
2019-03-16T12:25:25.205Z,12.00
2019-03-16T12:27:54.080Z,11.90
2019-03-16T12:30:22.926Z,12.00
2019-03-16T12:32:51.783Z,11.90
2019-03-16T12:35:20.704Z,11.90
2019-03-16T12:37:49.565Z,11.90
2019-03-16T12:40:18.521Z,11.90
2019-03-16T12:42:47.411Z,11.90
2019-03-16T12:45:16.311Z,11.90
2019-03-16T12:47:45.212Z,11.80
2019-03-16T12:50:14.343Z,11.80
2019-03-16T12:52:43.573Z,11.80
2019-03-16T12:55:12.644Z,11.90
2019-03-16T12:57:41.528Z,12.00
2019-03-16T13:00:12.518Z,12.10
2019-03-16T13:02:41.425Z,12.20
2019-03-16T13:05:10.804Z,12.20
2019-03-16T13:07:39.696Z,12.10
2019-03-16T13:10:10.324Z,12.10
2019-03-16T13:12:39.352Z,12.10
2019-03-16T13:15:08.452Z,12.00
2019-03-16T13:17:37.268Z,12.00
2019-03-16T13:20:06.816Z,12.00
2019-03-16T13:22:35.626Z,12.00
2019-03-16T13:25:04.981Z,12.00
2019-03-16T13:27:33.809Z,12.00
2019-03-16T13:30:02.723Z,11.90
2019-03-16T13:32:31.605Z,11.90
2019-03-16T13:35:00.509Z,11.90
2019-03-16T13:37:29.361Z,11.90
2019-03-16T13:39:58.177Z,11.90
2019-03-16T13:42:27.233Z,11.90
2019-03-16T13:44:56.128Z,11.90
2019-03-16T13:47:24.949Z,11.90
2019-03-16T13:49:53.821Z,11.90
2019-03-16T13:52:22.626Z,11.90
2019-03-16T13:54:51.415Z,11.80
2019-03-16T13:57:20.526Z,11.90
2019-03-16T13:59:49.566Z,11.90
2019-03-16T14:02:18.353Z,11.90
2019-03-16T14:04:47.357Z,11.90
2019-03-16T14:07:16.312Z,11.90
2019-03-16T14:09:45.198Z,11.90
2019-03-16T14:12:14.129Z,12.00
2019-03-16T14:14:43.559Z,12.00
2019-03-16T14:17:12.464Z,12.00
2019-03-16T14:19:41.341Z,12.00
2019-03-16T14:22:10.283Z,12.00
2019-03-16T14:24:39.089Z,12.00
2019-03-16T14:27:08.352Z,11.90
2019-03-16T14:29:37.505Z,11.90
2019-03-16T14:32:06.452Z,11.90
2019-03-16T14:34:35.302Z,11.90
2019-03-16T14:37:04.260Z,11.90
2019-03-16T14:39:33.063Z,11.80
2019-03-16T14:42:02.144Z,11.80
2019-03-16T14:44:31.006Z,11.80
2019-03-16T14:46:59.839Z,11.80
2019-03-16T14:49:28.685Z,11.80
2019-03-16T14:51:57.972Z,11.80
2019-03-16T14:54:26.789Z,11.80
2019-03-16T14:56:55.613Z,11.80
2019-03-16T14:59:24.460Z,11.80
2019-03-16T15:01:53.257Z,11.70
2019-03-16T15:04:22.065Z,11.80
2019-03-16T15:07:10.110Z,11.80
2019-03-16T15:09:38.966Z,11.80
2019-03-16T15:12:07.822Z,11.80
2019-03-16T15:14:36.667Z,11.80
2019-03-16T15:17:05.561Z,11.80
2019-03-16T15:19:34.400Z,11.80
2019-03-16T15:22:03.286Z,11.80
2019-03-16T15:24:32.128Z,11.70
2019-03-16T15:27:00.953Z,11.80
2019-03-16T15:29:31.423Z,11.70
2019-03-16T15:32:00.293Z,11.80
2019-03-16T15:34:29.142Z,11.80
2019-03-16T15:36:58.013Z,11.80
2019-03-16T15:39:26.850Z,11.80
2019-03-16T15:41:55.680Z,11.80
2019-03-16T15:44:24.634Z,11.80
2019-03-16T15:46:53.468Z,11.70
2019-03-16T15:49:22.397Z,11.70
2019-03-16T15:51:51.215Z,11.70
2019-03-16T15:54:20.084Z,11.80
2019-03-16T15:56:48.891Z,11.70
2019-03-16T15:59:17.751Z,11.70
2019-03-16T16:01:46.661Z,11.70
2019-03-16T16:04:15.565Z,11.70
2019-03-16T16:06:44.466Z,11.70
2019-03-16T16:09:13.421Z,11.70
2019-03-16T16:11:42.299Z,11.60
2019-03-16T16:14:11.082Z,11.70
2019-03-16T16:16:39.936Z,11.70
2019-03-16T16:19:09.053Z,11.60
2019-03-16T16:21:37.946Z,11.60
2019-03-16T16:24:06.910Z,11.70
2019-03-16T16:26:35.827Z,11.70
2019-03-16T16:29:04.793Z,11.70
2019-03-16T16:31:33.911Z,11.70
2019-03-16T16:34:03.125Z,11.70
2019-03-16T16:36:39.976Z,11.70
2019-03-16T16:39:09.780Z,11.70
2019-03-16T16:41:38.698Z,11.60
2019-03-16T16:44:07.648Z,11.60
2019-03-16T16:46:36.495Z,11.60
2019-03-16T16:49:05.318Z,11.70
2019-03-16T16:51:34.137Z,11.60
2019-03-16T16:54:03.010Z,11.60
2019-03-16T16:56:31.833Z,11.60
2019-03-16T16:59:00.680Z,11.60
2019-03-16T17:01:29.828Z,11.60
2019-03-16T17:03:58.796Z,11.70
2019-03-16T17:06:27.821Z,11.70
2019-03-16T17:08:56.628Z,11.70
2019-03-16T17:11:26.403Z,11.70
2019-03-16T17:13:55.376Z,11.60
2019-03-16T17:16:24.149Z,11.60
2019-03-16T17:18:53.100Z,11.50
2019-03-16T17:21:21.967Z,11.50
2019-03-16T17:23:51.038Z,11.50
2019-03-16T17:26:19.992Z,11.50
2019-03-16T17:28:48.899Z,11.50
2019-03-16T17:31:17.809Z,11.50
2019-03-16T17:33:46.665Z,11.40
2019-03-16T17:36:15.488Z,11.40
2019-03-16T17:38:44.510Z,11.40
2019-03-16T17:41:13.395Z,11.40
2019-03-16T17:43:42.273Z,11.40
2019-03-16T17:46:11.102Z,11.40
2019-03-16T17:48:39.913Z,11.50
2019-03-16T17:51:08.724Z,11.50
2019-03-16T17:53:37.538Z,11.40
2019-03-16T17:56:06.944Z,11.50
2019-03-16T17:58:35.797Z,11.40
2019-03-16T18:01:04.756Z,11.50
2019-03-16T18:03:33.599Z,11.50
2019-03-16T18:06:02.469Z,11.50
2019-03-16T18:08:31.265Z,11.50
2019-03-16T18:11:00.062Z,11.50
2019-03-16T18:13:28.864Z,11.50
2019-03-16T18:15:57.733Z,11.50
2019-03-16T18:18:26.525Z,11.40
2019-03-16T18:20:55.361Z,11.40
2019-03-16T18:23:24.234Z,11.50
2019-03-16T18:25:53.408Z,11.50
2019-03-16T18:28:22.185Z,11.50
2019-03-16T18:30:51.009Z,11.40
2019-03-16T18:33:19.890Z,11.40
2019-03-16T18:35:48.944Z,11.40
2019-03-16T18:38:17.784Z,11.50
2019-03-16T18:40:46.616Z,11.40
2019-03-16T18:43:15.424Z,11.40
2019-03-16T18:45:44.257Z,11.40
2019-03-16T18:48:13.123Z,11.30
2019-03-16T18:50:42.005Z,11.40
2019-03-16T18:53:10.830Z,11.40
2019-03-16T18:55:39.643Z,11.30
2019-03-16T18:58:08.594Z,11.20
2019-03-16T19:00:37.489Z,11.30
2019-03-16T19:03:06.335Z,11.20
2019-03-16T19:05:35.206Z,11.20
2019-03-16T19:08:04.155Z,11.20
2019-03-16T19:10:33.737Z,11.20
2019-03-16T19:13:03.724Z,11.20
2019-03-16T19:15:32.586Z,11.20
2019-03-16T19:18:03.760Z,11.20
2019-03-16T19:20:34.996Z,11.20
2019-03-16T19:23:03.728Z,11.20
2019-03-16T19:25:32.697Z,11.20
2019-03-16T19:28:01.500Z,11.20
2019-03-16T19:30:30.417Z,11.20
2019-03-16T19:32:59.246Z,11.20
2019-03-16T19:35:28.040Z,11.10
2019-03-16T19:37:57.001Z,11.20
2019-03-16T19:40:28.761Z,11.20
2019-03-16T19:42:57.650Z,11.10
2019-03-16T19:45:26.502Z,11.20
2019-03-16T19:47:55.333Z,11.10
2019-03-16T19:50:24.227Z,11.10
2019-03-16T19:52:53.112Z,11.10
2019-03-16T19:55:21.924Z,11.10
2019-03-16T19:57:50.724Z,11.20
2019-03-16T20:00:19.869Z,11.20
2019-03-16T20:02:51.970Z,11.30
2019-03-16T20:05:21.702Z,11.30
2019-03-16T20:07:50.508Z,11.30
2019-03-16T20:10:19.417Z,11.30
2019-03-16T20:12:53.183Z,11.30
2019-03-16T20:15:22.286Z,11.40
2019-03-16T20:17:53.265Z,11.40
2019-03-16T20:20:22.097Z,11.40
2019-03-16T20:22:50.892Z,11.40
2019-03-16T20:25:21.262Z,11.40
2019-03-16T20:27:50.099Z,11.40
2019-03-16T20:30:26.384Z,11.40
2019-03-16T20:33:02.629Z,11.50
2019-03-16T20:35:20.593Z,11.50
2019-03-16T20:37:49.406Z,11.50
2019-03-16T20:40:18.388Z,11.50
2019-03-16T20:42:49.577Z,11.60
2019-03-16T20:45:18.416Z,11.60
2019-03-16T20:47:47.269Z,11.60
2019-03-16T20:50:16.241Z,11.60
2019-03-16T20:52:45.139Z,11.60
2019-03-16T20:55:14.112Z,11.60
2019-03-16T20:57:44.351Z,11.60
2019-03-16T21:00:13.528Z,11.60
2019-03-16T21:02:42.410Z,11.60
2019-03-16T21:05:11.659Z,11.70
2019-03-16T21:07:40.555Z,11.70
2019-03-16T21:10:09.547Z,11.60
2019-03-16T21:12:38.513Z,11.60
2019-03-16T21:15:08.437Z,11.60
2019-03-16T21:17:37.376Z,11.60
2019-03-16T21:20:07.648Z,11.60
2019-03-16T21:22:39.123Z,11.60
2019-03-16T21:25:07.625Z,11.60
2019-03-16T21:27:36.601Z,11.60
2019-03-16T21:30:06.997Z,11.60
2019-03-16T21:32:35.900Z,11.60
2019-03-16T21:35:05.372Z,11.70
2019-03-16T21:37:34.200Z,11.70
2019-03-16T21:40:03.164Z,11.60
2019-03-16T21:42:32.177Z,11.70
2019-03-16T21:45:01.000Z,11.70
2019-03-16T21:47:29.832Z,11.60
2019-03-16T21:49:58.663Z,11.60
2019-03-16T21:52:27.597Z,11.60
2019-03-16T21:54:56.377Z,11.60
2019-03-16T21:57:25.267Z,11.60
2019-03-16T21:59:54.236Z,11.50
2019-03-16T22:02:23.076Z,11.50
2019-03-16T22:04:51.891Z,11.50
2019-03-16T22:07:20.743Z,11.50
2019-03-16T22:09:49.792Z,11.50
2019-03-16T22:12:18.617Z,11.40
2019-03-16T22:14:47.453Z,11.40
2019-03-16T22:17:16.260Z,11.30
2019-03-16T22:19:45.061Z,11.40
2019-03-16T22:22:13.968Z,11.30
2019-03-16T22:24:42.885Z,11.30
2019-03-16T22:27:11.862Z,11.40
2019-03-16T22:29:40.854Z,11.30
2019-03-16T22:32:09.670Z,11.20
2019-03-16T22:34:38.508Z,11.30
2019-03-16T22:37:07.313Z,11.20
2019-03-16T22:39:36.121Z,11.30
2019-03-16T22:42:05.081Z,11.20
2019-03-16T22:44:34.169Z,11.10
2019-03-16T22:47:03.037Z,11.10
2019-03-16T22:49:31.925Z,11.20
2019-03-16T22:52:00.744Z,11.20
2019-03-16T22:54:29.631Z,11.20
2019-03-16T22:56:58.527Z,11.20
2019-03-16T22:59:27.393Z,11.20
2019-03-16T23:01:56.481Z,11.10
2019-03-16T23:04:25.273Z,11.20
2019-03-16T23:06:54.136Z,11.20
2019-03-16T23:09:23.032Z,11.10
2019-03-16T23:11:51.864Z,11.20
2019-03-16T23:14:20.760Z,11.10
2019-03-16T23:16:49.651Z,11.20
2019-03-16T23:19:18.778Z,11.20
2019-03-16T23:21:47.604Z,11.30
2019-03-16T23:24:16.413Z,11.30
2019-03-16T23:27:04.451Z,11.30
2019-03-16T23:29:33.328Z,11.40
2019-03-16T23:32:02.120Z,11.40
2019-03-16T23:34:31.045Z,11.40
2019-03-16T23:36:59.936Z,11.40
2019-03-16T23:39:28.776Z,11.40
2019-03-16T23:41:57.595Z,11.30
2019-03-16T23:44:26.382Z,11.40
2019-03-16T23:46:55.332Z,11.40
2019-03-16T23:49:24.169Z,11.40
2019-03-16T23:51:53.118Z,11.30
2019-03-16T23:54:21.921Z,11.40
2019-03-16T23:56:50.840Z,11.40
2019-03-16T23:59:19.697Z,11.30
